createdAt,value
2022-12-18T00:01:16.663Z,8.35
2022-12-18T00:03:45.765Z,5.35
2022-12-18T00:06:14.706Z,7.03
2022-12-18T00:08:42.495Z,7.05
2022-12-18T00:11:10.621Z,7.78
2022-12-18T00:13:39.687Z,9.50
2022-12-18T00:16:08.963Z,8.30
2022-12-18T00:18:36.644Z,9.27
2022-12-18T00:21:05.267Z,7.95
2022-12-18T00:23:33.392Z,5.03
2022-12-18T00:26:00.859Z,7.68
2022-12-18T00:28:28.321Z,6.75
2022-12-18T00:31:02.669Z,8.18
2022-12-18T00:33:30.182Z,6.82
2022-12-18T00:36:02.155Z,8.95
2022-12-18T00:38:29.829Z,5.35
2022-12-18T00:40:57.291Z,8.23
2022-12-18T00:43:23.874Z,7.70
2022-12-18T00:45:51.503Z,5.82
2022-12-18T00:48:20.290Z,8.10
2022-12-18T00:50:48.998Z,6.75
2022-12-18T00:53:16.477Z,8.07
2022-12-18T00:55:44.101Z,10.65
2022-12-18T00:58:11.635Z,6.05
2022-12-18T01:00:39.165Z,7.30
2022-12-18T01:03:07.198Z,9.88
2022-12-18T01:05:35.991Z,4.82
2022-12-18T01:08:03.370Z,11.85
2022-12-18T01:10:30.782Z,5.32
2022-12-18T01:12:58.235Z,5.88
2022-12-18T01:15:25.669Z,8.18
2022-12-18T01:17:54.124Z,8.48
2022-12-18T01:20:21.773Z,7.35
2022-12-18T01:22:50.550Z,6.50
2022-12-18T01:25:18.144Z,8.65
2022-12-18T01:27:45.563Z,6.38
2022-12-18T01:30:13.269Z,6.53
2022-12-18T01:32:40.643Z,8.32
2022-12-18T01:35:08.535Z,5.45
2022-12-18T01:37:35.933Z,5.75
2022-12-18T01:40:05.096Z,6.68
2022-12-18T01:42:32.500Z,6.43
2022-12-18T01:45:01.616Z,7.00
2022-12-18T01:47:32.227Z,6.30
2022-12-18T01:50:01.114Z,5.90
2022-12-18T01:52:30.509Z,9.77
2022-12-18T01:54:58.326Z,5.90
2022-12-18T01:57:27.403Z,5.70
2022-12-18T01:59:55.665Z,4.38
2022-12-18T02:02:23.335Z,6.15
2022-12-18T02:04:50.882Z,8.05
2022-12-18T02:07:21.873Z,4.40
2022-12-18T02:09:51.138Z,7.15
2022-12-18T02:12:19.614Z,6.60
2022-12-18T02:14:54.603Z,7.18
2022-12-18T02:17:23.216Z,6.30
2022-12-18T02:20:00.134Z,6.43
2022-12-18T02:22:30.044Z,4.78
2022-12-18T02:25:02.243Z,4.50
2022-12-18T02:27:31.770Z,4.10
2022-12-18T02:30:00.948Z,6.35
2022-12-18T02:32:29.948Z,6.00
2022-12-18T02:34:58.300Z,7.05
2022-12-18T02:37:27.739Z,7.63
2022-12-18T02:39:56.872Z,5.45
2022-12-18T02:42:24.488Z,4.28
2022-12-18T02:44:53.830Z,5.03
2022-12-18T02:47:23.961Z,3.90
2022-12-18T02:49:55.650Z,4.82
2022-12-18T02:52:27.872Z,6.85
2022-12-18T02:54:58.974Z,4.68
2022-12-18T02:57:29.495Z,7.60
2022-12-18T03:00:03.515Z,2.28
2022-12-18T03:02:35.858Z,4.35
2022-12-18T03:05:07.367Z,4.80
2022-12-18T03:07:40.003Z,3.53
2022-12-18T03:10:09.180Z,8.82
2022-12-18T03:12:37.494Z,6.25
2022-12-18T03:15:12.118Z,5.95
2022-12-18T03:17:43.570Z,7.60
2022-12-18T03:20:12.722Z,3.90
2022-12-18T03:22:40.432Z,6.18
2022-12-18T03:25:09.829Z,5.50
2022-12-18T03:27:38.730Z,5.60
2022-12-18T03:30:09.711Z,4.93
2022-12-18T03:32:41.310Z,4.80
2022-12-18T03:35:09.960Z,5.80
2022-12-18T03:37:37.814Z,8.75
2022-12-18T03:40:06.403Z,7.25
2022-12-18T03:42:38.975Z,2.60
2022-12-18T03:45:11.445Z,5.95
2022-12-18T03:47:43.259Z,3.45
2022-12-18T03:50:15.638Z,5.50
2022-12-18T03:52:44.580Z,8.82
2022-12-18T03:55:12.934Z,5.87
2022-12-18T03:57:40.716Z,3.83
2022-12-18T04:00:10.818Z,4.88
2022-12-18T04:02:40.187Z,4.30
2022-12-18T04:05:09.087Z,7.50
2022-12-18T04:07:37.275Z,4.97
2022-12-18T04:10:08.611Z,4.88
2022-12-18T04:12:36.045Z,4.07
2022-12-18T04:15:03.495Z,3.40
2022-12-18T04:17:32.260Z,6.93
2022-12-18T04:19:59.710Z,3.47
2022-12-18T04:22:27.201Z,3.92
2022-12-18T04:24:54.692Z,4.35
2022-12-18T04:27:22.134Z,5.45
2022-12-18T04:29:49.650Z,5.93
2022-12-18T04:32:17.033Z,4.18
2022-12-18T04:34:45.827Z,5.63
2022-12-18T04:37:13.382Z,5.72
2022-12-18T04:39:40.835Z,3.63
2022-12-18T04:42:08.279Z,4.70
2022-12-18T04:44:35.735Z,6.35
2022-12-18T04:47:03.275Z,4.97
2022-12-18T04:49:30.712Z,3.30
2022-12-18T04:51:59.497Z,3.40
2022-12-18T04:54:27.079Z,5.00
2022-12-18T04:56:54.567Z,5.05
2022-12-18T04:59:22.675Z,6.15
2022-12-18T05:01:51.073Z,3.20
2022-12-18T05:04:18.660Z,4.78
2022-12-18T05:06:47.390Z,5.20
2022-12-18T05:09:17.134Z,3.92
2022-12-18T05:11:44.813Z,2.80
2022-12-18T05:14:13.854Z,3.65
2022-12-18T05:16:41.590Z,3.90
2022-12-18T05:19:09.020Z,2.83
2022-12-18T05:21:36.463Z,2.45
2022-12-18T05:24:03.871Z,4.18
2022-12-18T05:26:32.754Z,4.38
2022-12-18T05:29:00.139Z,6.03
2022-12-18T05:31:27.612Z,2.67
2022-12-18T05:33:55.063Z,2.47
2022-12-18T05:36:22.640Z,3.05
2022-12-18T05:38:50.040Z,4.40
2022-12-18T05:41:17.525Z,3.75
2022-12-18T05:43:46.432Z,3.10
2022-12-18T05:46:14.936Z,4.57
2022-12-18T05:48:42.679Z,5.32
2022-12-18T05:51:11.016Z,3.08
2022-12-18T05:53:39.021Z,4.25
2022-12-18T05:56:07.783Z,1.88
2022-12-18T05:58:35.404Z,5.38
2022-12-18T06:01:09.576Z,5.00
2022-12-18T06:03:37.382Z,4.13
2022-12-18T06:06:05.015Z,2.38
2022-12-18T06:08:32.485Z,3.42
2022-12-18T06:10:59.947Z,3.60
2022-12-18T06:13:27.382Z,4.18
2022-12-18T06:15:54.866Z,2.65
2022-12-18T06:18:23.841Z,4.40
2022-12-18T06:20:56.621Z,8.57
2022-12-18T06:23:24.143Z,2.75
2022-12-18T06:25:51.581Z,6.97
2022-12-18T06:28:19.186Z,3.63
2022-12-18T06:30:46.685Z,2.08
2022-12-18T06:33:14.196Z,2.15
2022-12-18T06:35:43.106Z,2.50
2022-12-18T06:38:10.634Z,4.23
2022-12-18T06:40:39.132Z,3.28
2022-12-18T06:43:06.705Z,3.67
2022-12-18T06:45:34.362Z,1.90
2022-12-18T06:48:02.578Z,2.45
2022-12-18T06:50:30.456Z,4.30
2022-12-18T06:52:59.736Z,2.25
2022-12-18T06:55:27.177Z,3.10
2022-12-18T06:57:54.670Z,1.95
2022-12-18T07:00:22.352Z,3.05
2022-12-18T07:02:49.879Z,1.48
2022-12-18T07:05:17.712Z,2.53
2022-12-18T07:07:45.285Z,4.20
2022-12-18T07:10:14.305Z,3.17
2022-12-18T07:12:42.295Z,3.45
2022-12-18T07:15:10.222Z,3.00
2022-12-18T07:17:37.707Z,3.55
2022-12-18T07:20:05.641Z,4.28
2022-12-18T07:22:33.445Z,5.88
2022-12-18T07:25:01.181Z,10.88
2022-12-18T07:27:30.303Z,5.95
2022-12-18T07:29:58.242Z,3.45
2022-12-18T07:32:26.813Z,2.88
2022-12-18T07:34:54.224Z,4.22
2022-12-18T07:37:21.620Z,2.92
2022-12-18T07:39:49.476Z,3.47
2022-12-18T07:42:34.005Z,1.83
2022-12-18T07:45:03.271Z,6.57
2022-12-18T07:47:31.309Z,5.22
2022-12-18T07:49:59.124Z,4.90
2022-12-18T07:52:27.602Z,5.63
2022-12-18T07:54:55.055Z,2.83
2022-12-18T07:57:48.864Z,6.32
2022-12-18T08:00:14.323Z,5.63
2022-12-18T08:02:42.317Z,4.90
2022-12-18T08:05:10.797Z,7.72
2022-12-18T08:07:39.275Z,8.88
2022-12-18T08:10:08.358Z,8.90
2022-12-18T08:12:35.907Z,10.07
2022-12-18T08:15:03.364Z,9.75
2022-12-18T08:17:32.594Z,6.03
2022-12-18T08:20:00.871Z,7.28
2022-12-18T08:22:28.360Z,8.07
2022-12-18T08:24:55.909Z,6.57
2022-12-18T08:27:30.659Z,8.65
2022-12-18T08:29:58.254Z,7.22
2022-12-18T08:32:25.828Z,7.47
2022-12-18T08:34:55.693Z,9.73
2022-12-18T08:39:50.528Z,6.97
2022-12-18T08:42:35.534Z,14.00
2022-12-18T08:45:03.180Z,7.80
2022-12-18T08:47:30.594Z,7.15
2022-12-18T08:49:59.651Z,8.60
2022-12-18T08:52:28.103Z,11.93
2022-12-18T08:54:55.564Z,8.55
2022-12-18T08:57:23.058Z,6.47
2022-12-18T08:59:50.550Z,7.72
2022-12-18T09:02:18.330Z,7.07
2022-12-18T09:04:53.787Z,10.40
2022-12-18T09:07:26.000Z,8.98
2022-12-18T09:09:53.434Z,8.10
2022-12-18T09:12:21.123Z,7.63
2022-12-18T09:14:48.546Z,5.35
2022-12-18T09:17:16.183Z,8.35
2022-12-18T09:19:45.343Z,5.07
2022-12-18T09:22:12.804Z,8.13
2022-12-18T09:24:41.587Z,16.58
2022-12-18T09:27:09.405Z,16.13
2022-12-18T09:29:36.941Z,19.60
2022-12-18T09:32:04.388Z,22.33
2022-12-18T09:34:31.834Z,12.32
2022-12-18T09:36:59.334Z,16.63
2022-12-18T09:39:26.766Z,17.38
2022-12-18T09:41:56.760Z,19.42
2022-12-18T09:44:29.132Z,15.80
2022-12-18T09:46:59.996Z,16.88
2022-12-18T09:49:29.363Z,21.42
2022-12-18T09:51:59.116Z,15.15
2022-12-18T09:54:28.647Z,10.07
2022-12-18T09:56:58.046Z,6.35
2022-12-18T09:59:27.176Z,7.95
2022-12-18T10:01:56.602Z,5.22
2022-12-18T10:04:24.161Z,5.38
2022-12-18T10:06:54.803Z,6.45
2022-12-18T10:09:25.847Z,8.88
2022-12-18T10:11:57.703Z,8.02
2022-12-18T10:14:31.998Z,8.25
2022-12-18T10:17:03.018Z,5.65
2022-12-18T10:19:37.186Z,7.43
2022-12-18T10:22:10.542Z,10.55
2022-12-18T10:24:42.405Z,10.73
2022-12-18T10:27:14.366Z,13.13
2022-12-18T10:29:43.317Z,12.30
2022-12-18T10:32:14.337Z,11.05
2022-12-18T10:34:41.897Z,9.60
2022-12-18T10:37:16.747Z,14.32
2022-12-18T10:39:44.222Z,9.57
2022-12-18T10:42:13.960Z,8.07
2022-12-18T10:44:42.798Z,6.95
2022-12-18T10:47:14.158Z,17.40
2022-12-18T10:49:44.118Z,14.48
2022-12-18T10:52:16.191Z,16.48
2022-12-18T10:54:47.985Z,12.00
2022-12-18T10:57:20.058Z,13.93
2022-12-18T13:11:49.085Z,4.32
2022-12-18T13:14:32.106Z,3.88
2022-12-18T13:17:18.287Z,3.80
2022-12-18T13:19:46.108Z,4.38
2022-12-18T13:22:23.905Z,3.40
2022-12-18T13:24:51.529Z,3.47
2022-12-18T13:27:38.728Z,4.75
2022-12-18T13:30:34.478Z,3.80
2022-12-18T13:33:17.546Z,3.58
2022-12-18T13:35:54.549Z,3.65
2022-12-18T13:38:23.603Z,3.90
2022-12-18T13:41:00.117Z,3.97
2022-12-18T13:43:30.443Z,3.95
2022-12-18T13:46:02.496Z,6.50
2022-12-18T13:48:31.333Z,7.72
2022-12-18T13:51:02.924Z,8.90
2022-12-18T13:53:34.062Z,12.02
2022-12-18T13:56:01.569Z,9.60
2022-12-18T13:58:29.317Z,9.30
2022-12-18T14:00:57.690Z,6.05
2022-12-18T14:03:27.200Z,7.97
2022-12-18T14:06:00.702Z,9.80
2022-12-18T14:08:33.008Z,10.23
2022-12-18T14:11:00.442Z,12.85
2022-12-18T14:13:29.977Z,13.93
2022-12-18T14:15:59.277Z,12.25
2022-12-18T14:18:33.636Z,7.53
2022-12-18T14:21:02.561Z,8.02
2022-12-18T14:23:35.573Z,7.30
2022-12-18T14:26:06.180Z,9.60
2022-12-18T14:28:34.139Z,6.25
2022-12-18T14:31:01.691Z,7.15
2022-12-18T14:33:29.570Z,4.13
2022-12-18T14:35:58.759Z,7.72
2022-12-18T14:38:27.829Z,6.03
2022-12-18T14:40:58.006Z,4.20
2022-12-18T14:43:25.478Z,4.88
2022-12-18T14:45:53.255Z,5.07
2022-12-18T14:48:23.433Z,5.60
2022-12-18T14:51:00.364Z,3.40
2022-12-18T14:53:34.645Z,6.13
2022-12-18T14:56:04.234Z,7.00
2022-12-18T14:58:31.749Z,7.07
2022-12-18T15:00:59.269Z,7.78
2022-12-18T15:03:28.170Z,10.25
2022-12-18T15:05:55.717Z,6.68
2022-12-18T15:08:31.360Z,5.95
2022-12-18T15:10:59.055Z,5.25
2022-12-18T15:13:27.997Z,5.70
2022-12-18T15:15:57.878Z,3.13
2022-12-18T15:20:54.103Z,4.47
2022-12-18T15:23:22.881Z,2.03
2022-12-18T15:25:50.970Z,2.55
2022-12-18T15:28:21.360Z,4.43
2022-12-18T15:31:08.051Z,3.83
2022-12-18T15:33:37.475Z,2.28
2022-12-18T15:36:06.327Z,3.72
2022-12-18T15:38:34.090Z,3.97
2022-12-18T15:41:01.682Z,2.97
2022-12-18T15:43:37.625Z,6.20
2022-12-18T15:46:08.045Z,3.95
2022-12-18T15:48:36.298Z,6.50
2022-12-18T15:51:03.891Z,4.75
2022-12-18T15:53:32.269Z,4.93
2022-12-18T15:56:17.502Z,5.85
2022-12-18T15:58:45.724Z,3.35
2022-12-18T16:01:14.752Z,3.67
2022-12-18T16:03:42.669Z,3.58
2022-12-18T16:06:11.025Z,4.90
2022-12-18T16:08:38.469Z,4.28
2022-12-18T16:11:07.755Z,4.80
2022-12-18T16:13:35.162Z,3.20
2022-12-18T16:16:02.682Z,4.28
2022-12-18T16:18:31.628Z,6.68
2022-12-18T16:21:00.280Z,7.82
2022-12-18T16:23:28.112Z,3.47
2022-12-18T16:25:55.743Z,6.43
2022-12-18T16:28:23.185Z,5.10
2022-12-18T16:30:50.704Z,4.75
2022-12-18T16:33:18.143Z,3.97
2022-12-18T16:35:52.829Z,3.65
2022-12-18T16:38:20.486Z,4.45
2022-12-18T16:41:01.857Z,4.80
2022-12-18T16:43:29.266Z,9.02
2022-12-18T16:45:58.360Z,9.00
2022-12-18T16:48:25.899Z,5.90
2022-12-18T16:51:01.566Z,6.03
2022-12-18T16:53:29.096Z,4.60
2022-12-18T16:55:56.903Z,9.43
2022-12-18T16:58:24.634Z,6.13
2022-12-18T17:00:52.069Z,5.68
2022-12-18T17:03:19.685Z,5.05
2022-12-18T17:05:52.844Z,5.35
2022-12-18T17:08:22.304Z,7.75
2022-12-18T17:10:49.723Z,5.55
2022-12-18T17:13:20.221Z,16.65
2022-12-18T17:15:51.214Z,8.00
2022-12-18T17:18:19.181Z,4.50
2022-12-18T17:20:46.717Z,5.57
2022-12-18T17:23:14.241Z,5.15
2022-12-18T17:25:43.016Z,7.07
2022-12-18T17:28:10.447Z,7.30
2022-12-18T17:30:37.936Z,7.20
2022-12-18T17:33:05.400Z,4.85
2022-12-18T17:35:32.858Z,5.47
2022-12-18T17:38:00.345Z,5.22
2022-12-18T17:40:27.839Z,5.03
2022-12-18T17:42:56.649Z,3.47
2022-12-18T17:45:25.141Z,8.23
2022-12-18T17:47:56.838Z,7.82
2022-12-18T17:50:27.377Z,5.32
2022-12-18T17:52:56.332Z,5.68
2022-12-18T17:55:24.033Z,6.63
2022-12-18T17:57:51.619Z,6.82
2022-12-18T18:00:20.895Z,8.35
2022-12-18T18:02:48.495Z,3.88
2022-12-18T18:05:16.187Z,5.57
2022-12-18T18:07:43.628Z,7.43
2022-12-18T18:10:11.124Z,9.00
2022-12-18T18:12:55.843Z,7.45
2022-12-18T18:15:24.620Z,6.88
2022-12-18T18:17:52.092Z,6.80
2022-12-18T18:20:22.825Z,5.00
2022-12-18T18:22:50.464Z,6.00
2022-12-18T18:25:18.235Z,6.65
2022-12-18T18:27:46.551Z,6.75
2022-12-18T18:30:15.087Z,7.18
2022-12-18T18:32:43.859Z,4.93
2022-12-18T18:35:19.449Z,6.38
2022-12-18T18:37:58.794Z,4.50
2022-12-18T18:40:26.221Z,5.75
2022-12-18T18:45:23.438Z,5.78
2022-12-18T18:47:52.270Z,5.25
2022-12-18T18:50:20.048Z,3.78
2022-12-18T18:52:47.452Z,6.20
2022-12-18T18:55:20.500Z,6.65
2022-12-18T18:57:52.828Z,4.55
2022-12-18T19:00:20.508Z,5.30
2022-12-18T19:02:48.826Z,5.25
2022-12-18T19:05:17.748Z,4.85
2022-12-18T19:07:46.308Z,4.15
2022-12-18T19:10:13.784Z,6.05
2022-12-18T19:12:58.892Z,5.72
2022-12-18T19:15:26.517Z,6.22
2022-12-18T19:17:54.317Z,5.47
2022-12-18T19:20:23.430Z,5.20
2022-12-18T19:22:55.769Z,5.80
2022-12-18T19:25:29.956Z,3.53
2022-12-18T19:28:07.797Z,4.57
2022-12-18T19:30:43.539Z,5.13
2022-12-18T19:33:41.850Z,7.45
2022-12-18T19:36:00.941Z,8.10
2022-12-18T19:40:59.854Z,4.57
2022-12-18T19:43:27.300Z,1.52
2022-12-18T19:45:57.309Z,3.63
2022-12-18T19:48:24.761Z,3.58
2022-12-18T19:50:56.792Z,2.78
2022-12-18T19:53:25.701Z,4.25
2022-12-18T19:55:53.102Z,4.10
2022-12-18T19:58:20.543Z,4.55
2022-12-18T20:03:27.391Z,3.00
2022-12-18T20:05:57.999Z,5.13
2022-12-18T20:08:28.865Z,4.82
2022-12-18T20:10:56.323Z,4.35
2022-12-18T20:13:23.837Z,5.07
2022-12-18T20:15:51.325Z,3.95
2022-12-18T20:18:18.799Z,3.55
2022-12-18T20:20:49.357Z,3.55
2022-12-18T20:23:18.332Z,5.05
2022-12-18T20:25:49.232Z,4.55
2022-12-18T20:28:16.725Z,6.68
2022-12-18T20:30:44.207Z,5.28
2022-12-18T20:33:17.207Z,3.40
2022-12-18T20:35:44.744Z,5.55
2022-12-18T20:38:18.329Z,3.38
2022-12-18T20:40:48.365Z,4.90
2022-12-18T20:43:17.613Z,3.13
2022-12-18T20:45:47.778Z,5.00
2022-12-18T20:48:15.583Z,5.13
2022-12-18T20:50:44.377Z,2.83
2022-12-18T20:53:11.799Z,2.97
2022-12-18T20:55:42.043Z,3.88
2022-12-18T20:58:10.850Z,3.35
2022-12-18T21:00:38.273Z,5.03
2022-12-18T21:03:05.824Z,5.45
2022-12-18T21:05:33.312Z,5.85
2022-12-18T21:08:04.689Z,5.63
2022-12-18T21:10:32.101Z,5.28
2022-12-18T21:13:01.777Z,5.60
2022-12-18T21:15:35.893Z,3.75
2022-12-18T21:20:30.799Z,5.80
2022-12-18T21:23:03.955Z,4.80
2022-12-18T21:25:43.606Z,4.35
2022-12-18T21:28:11.049Z,3.22
2022-12-18T21:30:39.953Z,6.10
2022-12-18T21:33:07.395Z,3.53
2022-12-18T21:35:34.907Z,6.13
2022-12-18T21:38:03.875Z,6.30
2022-12-18T21:40:33.262Z,5.90
2022-12-18T21:43:18.730Z,6.20
2022-12-18T21:45:47.597Z,6.10
2022-12-18T21:48:15.096Z,13.07
2022-12-18T21:50:42.538Z,9.10
2022-12-18T21:53:09.924Z,6.97
2022-12-18T21:55:37.350Z,5.00
2022-12-18T21:58:04.764Z,5.38
2022-12-18T22:00:32.218Z,5.68
2022-12-18T22:03:17.360Z,4.22
2022-12-18T22:05:46.365Z,5.93
2022-12-18T22:08:17.111Z,4.72
2022-12-18T22:10:44.631Z,5.68
2022-12-18T22:13:12.276Z,4.68
2022-12-18T22:15:39.863Z,3.95
2022-12-18T22:18:08.647Z,5.82
2022-12-18T22:20:36.119Z,4.38
2022-12-18T22:23:06.343Z,6.15
2022-12-18T22:25:33.888Z,6.30
2022-12-18T22:28:20.313Z,2.60
2022-12-18T22:30:47.795Z,4.53
2022-12-18T22:33:17.786Z,3.45
2022-12-18T22:35:45.318Z,4.93
2022-12-18T22:38:13.471Z,6.85
2022-12-18T22:40:41.067Z,3.97
2022-12-18T22:43:08.597Z,4.10
2022-12-18T22:45:38.331Z,4.15
2022-12-18T22:48:06.649Z,5.55
2022-12-18T22:50:35.490Z,4.93
2022-12-18T22:53:03.106Z,5.97
2022-12-18T22:55:30.805Z,2.83
2022-12-18T22:57:58.706Z,4.97
2022-12-18T23:00:26.426Z,3.85
2022-12-18T23:02:59.891Z,4.35
2022-12-18T23:05:28.892Z,4.80
2022-12-18T23:07:57.706Z,4.88
2022-12-18T23:10:25.266Z,5.13
2022-12-18T23:12:52.692Z,4.97
2022-12-18T23:15:27.891Z,4.13
2022-12-18T23:17:57.647Z,5.70
2022-12-18T23:20:25.892Z,4.65
2022-12-18T23:22:53.336Z,5.07
2022-12-18T23:25:22.117Z,3.85
2022-12-18T23:27:49.537Z,5.10
2022-12-18T23:30:17.066Z,6.28
2022-12-18T23:32:44.494Z,4.53
2022-12-18T23:35:15.613Z,3.17
2022-12-18T23:37:58.878Z,3.50
2022-12-18T23:40:29.316Z,5.07
2022-12-18T23:42:56.755Z,4.80
2022-12-18T23:45:24.259Z,4.47
2022-12-18T23:47:51.689Z,5.18
2022-12-18T23:50:19.268Z,4.35
2022-12-18T23:52:50.298Z,3.88
2022-12-18T23:55:17.734Z,3.17
2022-12-18T23:57:46.519Z,4.07
